createdAt,value
2019-03-25T00:00:03.499Z,44.81
2019-03-25T00:01:02.822Z,44.81
2019-03-25T00:02:03.696Z,44.29
2019-03-25T00:03:02.873Z,45.21
2019-03-25T00:04:03.879Z,45.11
2019-03-25T00:05:02.975Z,44.04
2019-03-25T00:06:02.973Z,43.3
2019-03-25T00:07:03.770Z,45.48
2019-03-25T00:08:02.996Z,41.73
2019-03-25T00:09:05.815Z,43.86
2019-03-25T00:10:03.927Z,44.83
2019-03-25T00:11:03.729Z,43.13
2019-03-25T00:12:02.861Z,43.86
2019-03-25T00:13:02.823Z,44.99
2019-03-25T00:14:03.457Z,45.17
2019-03-25T00:15:03.131Z,40.64
2019-03-25T00:16:02.661Z,44.03
2019-03-25T00:17:02.695Z,44.58
2019-03-25T00:18:02.741Z,43.61
2019-03-25T00:19:03.635Z,45.34
2019-03-25T00:20:03.603Z,42.66
2019-03-25T00:21:03.747Z,45.88
2019-03-25T00:22:03.407Z,45.61
2019-03-25T00:23:03.581Z,41.82
2019-03-25T00:24:03.698Z,45.15
2019-03-25T00:25:03.652Z,41.13
2019-03-25T00:26:03.548Z,43.38
2019-03-25T00:27:03.566Z,44.18
2019-03-25T00:28:03.290Z,43.52
2019-03-25T00:29:03.655Z,43.11
2019-03-25T00:30:03.627Z,42.74
2019-03-25T00:31:03.844Z,44.95
2019-03-25T00:32:03.631Z,44.44
2019-03-25T00:33:03.886Z,45.96
2019-03-25T00:34:03.598Z,41.71
2019-03-25T00:35:03.513Z,43.11
2019-03-25T00:36:03.940Z,42.75
2019-03-25T00:37:03.457Z,42.51
2019-03-25T00:38:03.543Z,43.11
2019-03-25T00:39:03.541Z,43.96
2019-03-25T00:40:02.925Z,44.89
2019-03-25T00:41:03.445Z,43.86
2019-03-25T00:42:03.344Z,44.92
2019-03-25T00:43:03.709Z,45.12
2019-03-25T00:44:03.741Z,45.12
2019-03-25T00:45:03.401Z,44.54
2019-03-25T00:46:03.591Z,43.67
2019-03-25T00:47:03.332Z,43.67
2019-03-25T00:48:03.537Z,44.22
2019-03-25T00:49:03.318Z,46.56
2019-03-25T00:50:03.356Z,46.56
2019-03-25T00:51:03.515Z,43.62
2019-03-25T00:52:03.560Z,44.58
2019-03-25T00:53:03.530Z,45.19
2019-03-25T00:54:03.375Z,45.11
2019-03-25T00:55:03.679Z,44.17
2019-03-25T00:56:03.609Z,45.15
2019-03-25T00:57:02.797Z,44.1
2019-03-25T00:58:03.160Z,46.71
2019-03-25T00:59:03.050Z,44.53
2019-03-25T01:00:03.574Z,44.86
2019-03-25T01:01:03.293Z,45.49
2019-03-25T01:02:03.347Z,44.22
2019-03-25T01:03:03.046Z,44.4
2019-03-25T01:04:03.270Z,43.98
2019-03-25T01:05:03.181Z,45.16
2019-03-25T01:06:02.959Z,45.16
2019-03-25T01:07:03.295Z,44.22
2019-03-25T01:08:03.310Z,42.41
2019-03-25T01:09:02.951Z,48.22
2019-03-25T01:10:03.250Z,47.86
2019-03-25T01:11:03.111Z,46.1
2019-03-25T01:12:03.416Z,45.55
2019-03-25T01:13:02.930Z,46.64
2019-03-25T01:14:02.914Z,45.31
2019-03-25T01:15:03.287Z,46.2
2019-03-25T01:16:02.927Z,45.96
2019-03-25T01:17:03.252Z,46.15
2019-03-25T01:18:03.027Z,46.15
2019-03-25T01:19:03.126Z,46.29
2019-03-25T01:20:03.320Z,44.46
2019-03-25T01:21:02.925Z,48.35
2019-03-25T01:22:02.932Z,46.31
2019-03-25T01:23:02.893Z,44.54
2019-03-25T01:24:03.057Z,47.16
2019-03-25T01:25:02.966Z,45.84
2019-03-25T01:26:02.977Z,45.71
2019-03-25T01:27:03.671Z,44.98
2019-03-25T01:28:02.560Z,45.53
2019-03-25T01:29:03.949Z,46.28
2019-03-25T01:30:02.910Z,44.65
2019-03-25T01:31:03.088Z,43.33
2019-03-25T01:32:02.942Z,44.19
2019-03-25T01:33:02.963Z,44.77
2019-03-25T01:34:02.865Z,45.01
2019-03-25T01:35:03.009Z,44.88
2019-03-25T01:36:03.713Z,42.88
2019-03-25T01:37:03.626Z,46.16
2019-03-25T01:38:03.473Z,45.98
2019-03-25T01:39:02.653Z,45.98
2019-03-25T01:40:03.709Z,45.7
2019-03-25T01:41:02.827Z,43.87
2019-03-25T01:42:03.913Z,45.08
2019-03-25T01:43:03.597Z,45.66
2019-03-25T01:44:03.810Z,42.71
2019-03-25T01:45:03.596Z,43.25
2019-03-25T01:46:03.538Z,43.81
2019-03-25T01:47:03.280Z,45.29
2019-03-25T01:48:03.656Z,42.79
2019-03-25T01:49:03.484Z,45.48
2019-03-25T01:50:03.871Z,44.46
2019-03-25T01:51:03.387Z,44.57
2019-03-25T01:52:02.899Z,43.01
2019-03-25T01:53:03.941Z,44.75
2019-03-25T01:54:03.556Z,43.46
2019-03-25T01:55:13.841Z,44.1
2019-03-25T01:56:02.953Z,43.54
2019-03-25T01:57:03.799Z,44.59
2019-03-25T01:58:03.757Z,43.37
2019-03-25T01:59:03.751Z,42.39
2019-03-25T02:00:03.688Z,42.79
2019-03-25T02:01:03.651Z,43.68
2019-03-25T02:02:03.570Z,44.43
2019-03-25T02:03:02.771Z,43.26
2019-03-25T02:04:03.616Z,43.72
2019-03-25T02:05:02.906Z,44.99
2019-03-25T02:06:03.637Z,42.19
2019-03-25T02:07:03.005Z,43.41
2019-03-25T02:08:03.924Z,43.01
2019-03-25T02:09:03.623Z,42.31
2019-03-25T02:10:03.822Z,41.74
2019-03-25T02:11:03.503Z,41.95
2019-03-25T02:12:03.773Z,43.05
2019-03-25T02:13:03.587Z,41.31
2019-03-25T02:14:03.331Z,41.89
2019-03-25T02:15:02.896Z,42.21
2019-03-25T02:16:02.920Z,42.92
2019-03-25T02:17:02.526Z,42.63
2019-03-25T02:18:03.839Z,39.79
2019-03-25T02:19:03.634Z,41.58
2019-03-25T02:20:03.242Z,42.21
2019-03-25T02:21:03.565Z,40.71
2019-03-25T02:22:03.646Z,41.31
2019-03-25T02:23:03.264Z,41.41
2019-03-25T02:24:03.997Z,41.41
2019-03-25T02:25:03.324Z,41.62
2019-03-25T02:26:03.674Z,41.51
2019-03-25T02:27:02.715Z,41.51
2019-03-25T02:28:03.601Z,41.08
2019-03-25T02:29:03.722Z,41.49
2019-03-25T02:30:03.481Z,41.49
2019-03-25T02:31:02.858Z,42.26
2019-03-25T02:32:03.547Z,43.68
2019-03-25T02:33:02.972Z,41.48
2019-03-25T02:34:03.707Z,41.36
2019-03-25T02:35:03.722Z,41.42
2019-03-25T02:36:02.845Z,41.16
2019-03-25T02:37:03.343Z,42.33
2019-03-25T02:38:02.875Z,41.39
2019-03-25T02:39:03.453Z,40.25
2019-03-25T02:40:02.803Z,40.87
2019-03-25T02:41:03.848Z,40.52
2019-03-25T02:42:03.670Z,41
2019-03-25T02:43:03.555Z,39.76
2019-03-25T02:44:03.008Z,40.24
2019-03-25T02:45:03.647Z,40.58
2019-03-25T02:46:03.671Z,42.55
2019-03-25T02:47:03.775Z,42.56
2019-03-25T02:48:03.773Z,42.92
2019-03-25T02:49:03.402Z,40.81
2019-03-25T02:50:02.942Z,41.7
2019-03-25T02:51:02.843Z,40.68
2019-03-25T02:52:03.309Z,39.75
2019-03-25T02:53:03.670Z,39.42
2019-03-25T02:54:03.505Z,40.98
2019-03-25T02:55:03.618Z,39.64
2019-03-25T02:56:03.358Z,38.2
2019-03-25T02:57:03.421Z,39.73
2019-03-25T02:58:03.514Z,38.42
2019-03-25T02:59:03.375Z,39.08
2019-03-25T03:00:03.519Z,38.98
2019-03-25T03:01:03.561Z,38.57
2019-03-25T03:02:03.637Z,37.89
2019-03-25T03:03:03.398Z,37.45
2019-03-25T03:04:03.599Z,39.86
2019-03-25T03:05:03.373Z,37.68
2019-03-25T03:06:03.272Z,38.24
2019-03-25T03:07:03.417Z,37.77
2019-03-25T03:08:03.282Z,37.02
2019-03-25T03:09:03.328Z,36.45
2019-03-25T03:10:03.240Z,36.41
2019-03-25T03:11:03.393Z,36.28
2019-03-25T03:12:03.487Z,38.35
2019-03-25T03:13:03.150Z,38.72
2019-03-25T03:14:03.468Z,35.96
2019-03-25T03:15:05.354Z,35.96
2019-03-25T03:16:03.418Z,37.76
2019-03-25T03:17:03.350Z,34.73
2019-03-25T03:18:03.123Z,34.73
2019-03-25T03:19:03.163Z,36.27
2019-03-25T03:20:03.091Z,37.06
2019-03-25T03:21:03.255Z,37.06
2019-03-25T03:22:03.129Z,36.17
2019-03-25T03:23:03.238Z,36.92
2019-03-25T03:24:02.938Z,33.39
2019-03-25T03:25:03.428Z,35.29
2019-03-25T03:26:03.269Z,36.33
2019-03-25T03:27:03.177Z,34.94
2019-03-25T03:28:03.068Z,37.06
2019-03-25T03:29:03.338Z,35.44
2019-03-25T03:30:03.664Z,36.09
2019-03-25T03:31:03.212Z,37.04
2019-03-25T03:32:02.973Z,37.12
2019-03-25T03:33:03.201Z,34.63
2019-03-25T03:34:03.076Z,35.95
2019-03-25T03:35:03.691Z,34.05
2019-03-25T03:36:03.257Z,36.69
2019-03-25T03:37:02.871Z,34.94
2019-03-25T03:38:02.960Z,38.29
2019-03-25T03:39:02.885Z,36.18
2019-03-25T03:40:03.494Z,35.54
2019-03-25T03:41:03.135Z,36.94
2019-03-25T03:42:03.310Z,35.08
2019-03-25T03:43:03.091Z,35.09
2019-03-25T03:44:03.285Z,36.48
2019-03-25T03:45:03.045Z,36.38
2019-03-25T03:46:02.995Z,37.34
2019-03-25T03:47:02.928Z,36.95
2019-03-25T03:48:02.948Z,37.94
2019-03-25T03:49:03.284Z,38.7
2019-03-25T03:50:03.032Z,37.83
2019-03-25T03:51:02.846Z,38.38
2019-03-25T03:52:02.884Z,38.39
2019-03-25T03:53:03.204Z,39.36
2019-03-25T03:54:03.069Z,41.18
2019-03-25T03:55:03.138Z,38.01
2019-03-25T03:56:14.268Z,39.36
2019-03-25T03:57:03.116Z,40.14
2019-03-25T03:58:02.860Z,37.08
2019-03-25T03:59:03.032Z,38.79
2019-03-25T04:00:03.054Z,39.41
2019-03-25T04:01:03.603Z,36.73
2019-03-25T04:02:02.878Z,37.51
2019-03-25T04:03:03.661Z,39.22
2019-03-25T04:04:02.790Z,39.22
2019-03-25T04:05:03.841Z,36.81
2019-03-25T04:06:02.995Z,36.81
2019-03-25T04:07:03.744Z,38.58
2019-03-25T04:08:02.578Z,37.22
2019-03-25T04:09:03.562Z,37.22
2019-03-25T04:10:03.852Z,36.65
2019-03-25T04:11:03.568Z,37.53
2019-03-25T04:12:02.792Z,37.14
2019-03-25T04:13:03.001Z,37.39
2019-03-25T04:14:03.756Z,34.81
2019-03-25T04:15:04.731Z,36.02
2019-03-25T04:16:03.597Z,36.83
2019-03-25T04:17:02.903Z,35.76
2019-03-25T04:18:03.676Z,35.22
2019-03-25T04:19:03.623Z,36.89
2019-03-25T04:20:03.684Z,37.28
2019-03-25T04:21:03.705Z,35.05
2019-03-25T04:22:03.253Z,37.19
2019-03-25T04:23:03.681Z,36.15
2019-03-25T04:24:03.712Z,37.27
2019-03-25T04:25:03.776Z,35.89
2019-03-25T04:26:03.393Z,34.08
2019-03-25T04:27:03.189Z,35.38
2019-03-25T04:28:03.456Z,34.51
2019-03-25T04:29:03.410Z,34.22
2019-03-25T04:30:03.292Z,34.38
2019-03-25T04:31:03.141Z,33.95
2019-03-25T04:32:06.433Z,33.44
2019-03-25T04:33:03.228Z,32.26
2019-03-25T04:34:03.674Z,34.26
2019-03-25T04:35:03.421Z,32.28
2019-03-25T04:36:03.539Z,31.1
2019-03-25T04:37:03.802Z,31.65
2019-03-25T04:38:03.158Z,32.35
2019-03-25T04:39:02.809Z,31.69
2019-03-25T04:40:02.912Z,32.31
2019-03-25T04:41:02.883Z,31.34
2019-03-25T04:42:03.653Z,31
2019-03-25T04:43:03.874Z,31.75
2019-03-25T04:44:02.742Z,31.44
2019-03-25T04:45:03.609Z,32.35
2019-03-25T04:46:03.477Z,31.02
2019-03-25T04:47:02.829Z,32.12
2019-03-25T04:48:03.781Z,30.86
2019-03-25T04:49:02.726Z,32.62
2019-03-25T04:50:03.888Z,31.57
2019-03-25T04:51:02.727Z,30.09
2019-03-25T04:52:03.709Z,30.09
2019-03-25T04:53:03.507Z,31.54
2019-03-25T04:54:03.617Z,31.24
2019-03-25T04:55:03.783Z,31.24
2019-03-25T04:56:03.817Z,31.34
2019-03-25T04:57:03.607Z,32.96
2019-03-25T04:58:03.596Z,32.96
2019-03-25T04:59:05.687Z,32.42
2019-03-25T05:00:03.745Z,32.58
2019-03-25T05:01:03.679Z,31.92
2019-03-25T05:02:02.872Z,30.88
2019-03-25T05:03:02.778Z,30.08
2019-03-25T05:04:02.960Z,32.37
2019-03-25T05:05:02.780Z,31.87
2019-03-25T05:06:03.097Z,31.62
2019-03-25T05:07:03.505Z,30.46
2019-03-25T05:08:03.707Z,33.11
2019-03-25T05:09:03.784Z,32.16
2019-03-25T05:10:03.687Z,32.51
2019-03-25T05:11:04.004Z,30.81
2019-03-25T05:12:02.889Z,30.6
2019-03-25T05:13:03.692Z,31.92
2019-03-25T05:14:03.285Z,29.71
2019-03-25T05:15:02.813Z,28.91
2019-03-25T05:16:03.864Z,29.32
2019-03-25T05:17:03.810Z,31.04
2019-03-25T05:18:03.746Z,32.71
2019-03-25T05:19:02.927Z,30.06
2019-03-25T05:20:02.738Z,28.48
2019-03-25T05:21:02.631Z,29.39
2019-03-25T05:22:02.812Z,31.04
2019-03-25T05:23:02.786Z,29.32
2019-03-25T05:24:03.543Z,28.3
2019-03-25T05:25:03.707Z,29.77
2019-03-25T05:26:02.872Z,29.32
2019-03-25T05:27:03.653Z,29.64
2019-03-25T05:28:03.513Z,29.72
2019-03-25T05:29:03.731Z,29.22
2019-03-25T05:30:03.639Z,29.36
2019-03-25T05:31:03.397Z,27.31
2019-03-25T05:32:02.842Z,27.64
2019-03-25T05:33:03.622Z,28.75
2019-03-25T05:34:02.818Z,29.02
2019-03-25T05:35:02.936Z,28.25
2019-03-25T05:36:03.351Z,27.34
2019-03-25T05:37:03.253Z,29.82
2019-03-25T05:38:03.358Z,26.92
2019-03-25T05:39:03.517Z,27.41
2019-03-25T05:40:03.500Z,27.98
2019-03-25T05:41:03.477Z,28.16
2019-03-25T05:42:03.512Z,27.48
2019-03-25T05:43:03.531Z,27.48
2019-03-25T05:44:03.117Z,26.16
2019-03-25T05:45:03.123Z,27
2019-03-25T05:46:03.241Z,27
2019-03-25T05:47:03.104Z,25.69
2019-03-25T05:48:02.656Z,26.72
2019-03-25T05:49:03.327Z,26.72
2019-03-25T05:50:03.133Z,26.75
2019-03-25T05:51:03.011Z,25.6
2019-03-25T05:52:03.287Z,29.02
2019-03-25T05:53:02.904Z,28.34
2019-03-25T05:54:03.346Z,28.02
2019-03-25T05:55:03.037Z,28.21
2019-03-25T05:56:03.356Z,27.88
2019-03-25T05:57:03.278Z,28.68
2019-03-25T05:58:03.229Z,27.05
2019-03-25T05:59:03.042Z,30.42
2019-03-25T06:00:03.250Z,26.57
2019-03-25T06:01:03.323Z,27.15
2019-03-25T06:02:03.329Z,25.59
2019-03-25T06:03:02.835Z,24.01
2019-03-25T06:04:03.179Z,25.76
2019-03-25T06:05:03.200Z,25.02
2019-03-25T06:06:03.067Z,26
2019-03-25T06:07:03.289Z,26.92
2019-03-25T06:08:03.367Z,25.55
2019-03-25T06:09:03.222Z,27.55
2019-03-25T06:10:03.079Z,25.95
2019-03-25T06:11:03.104Z,25.99
2019-03-25T06:12:02.941Z,26
2019-03-25T06:13:02.878Z,24.98
2019-03-25T06:14:03.124Z,25
2019-03-25T06:15:03.015Z,25.24
2019-03-25T06:16:02.839Z,25.43
2019-03-25T06:17:03.056Z,23.45
2019-03-25T06:18:02.936Z,23.65
2019-03-25T06:19:02.829Z,23.29
2019-03-25T06:20:03.505Z,23.99
2019-03-25T06:21:03.018Z,22.31
2019-03-25T06:22:02.997Z,23.86
2019-03-25T06:23:02.831Z,21.29
2019-03-25T06:24:02.955Z,21.89
2019-03-25T06:25:03.651Z,20.78
2019-03-25T06:26:03.619Z,20.82
2019-03-25T06:27:14.521Z,21.87
2019-03-25T06:28:03.672Z,19.85
2019-03-25T06:29:03.521Z,17.66
2019-03-25T06:30:03.877Z,18.05
2019-03-25T06:31:03.730Z,17.44
2019-03-25T06:32:02.811Z,17.44
2019-03-25T06:33:12.795Z,16.65
2019-03-25T06:34:03.058Z,16.65
2019-03-25T06:35:02.957Z,16.35
2019-03-25T06:36:02.786Z,15.34
2019-03-25T06:37:02.914Z,15.34
2019-03-25T06:38:02.799Z,15.76
2019-03-25T06:39:02.946Z,14.15
2019-03-25T06:40:03.482Z,14.85
2019-03-25T06:41:02.858Z,14.64
2019-03-25T06:42:03.463Z,15.91
2019-03-25T06:43:03.286Z,15.62
2019-03-25T06:44:03.329Z,15.19
2019-03-25T06:45:02.671Z,14.82
2019-03-25T06:46:03.378Z,14.83
2019-03-25T06:47:03.589Z,14.68
2019-03-25T06:48:03.548Z,14.58
2019-03-25T06:49:03.597Z,14.51
2019-03-25T06:50:03.421Z,14.78
2019-03-25T06:51:03.629Z,14.15
2019-03-25T06:52:03.403Z,14.53
2019-03-25T06:53:03.408Z,14.54
2019-03-25T06:54:03.420Z,14.45
2019-03-25T06:55:03.318Z,13.72
2019-03-25T06:56:03.362Z,15.64
2019-03-25T06:57:03.372Z,15.06
2019-03-25T06:58:03.293Z,13.66
2019-03-25T06:59:03.391Z,14.09
2019-03-25T07:00:03.344Z,12.8
2019-03-25T07:01:03.400Z,13.34
2019-03-25T07:02:03.199Z,15.05
2019-03-25T07:03:03.085Z,13.35
2019-03-25T07:04:03.402Z,13.04
2019-03-25T07:05:03.535Z,12.07
2019-03-25T07:06:03.536Z,12.69
2019-03-25T07:07:03.166Z,13.21
2019-03-25T07:08:02.916Z,12.75
2019-03-25T07:09:03.304Z,12.77
2019-03-25T07:10:03.274Z,13.22
2019-03-25T07:11:03.068Z,13.48
2019-03-25T07:12:03.194Z,13.26
2019-03-25T07:13:03.142Z,13.85
2019-03-25T07:14:03.143Z,14.08
2019-03-25T07:15:03.376Z,13.37
2019-03-25T07:16:03.278Z,13.72
2019-03-25T07:17:03.328Z,15.5
2019-03-25T07:18:03.009Z,13.13
2019-03-25T07:19:03.543Z,12.54
2019-03-25T07:20:03.489Z,12.54
2019-03-25T07:21:02.923Z,14.22
2019-03-25T07:22:03.251Z,14.03
2019-03-25T07:23:03.417Z,14.03
2019-03-25T07:24:03.258Z,13.19
2019-03-25T07:25:03.154Z,12.91
2019-03-25T07:26:03.076Z,12.91
2019-03-25T07:27:03.130Z,13.19
2019-03-25T07:28:03.081Z,12.45
2019-03-25T07:29:02.985Z,13.36
2019-03-25T07:30:02.931Z,11.32
2019-03-25T07:31:03.049Z,9.06
2019-03-25T07:32:03.009Z,10.04
2019-03-25T07:33:03.586Z,8.79
2019-03-25T07:34:02.685Z,9.43
2019-03-25T07:35:02.994Z,9.3
2019-03-25T07:36:02.961Z,9.11
2019-03-25T07:37:03.781Z,8.76
2019-03-25T07:38:03.524Z,9.71
2019-03-25T07:39:03.698Z,9.77
2019-03-25T07:40:03.742Z,10.44
2019-03-25T07:41:03.580Z,9.91
2019-03-25T07:42:03.418Z,10.81
2019-03-25T07:43:03.785Z,9.54
2019-03-25T07:44:03.370Z,10.41
2019-03-25T07:45:03.257Z,10.89
2019-03-25T07:46:03.527Z,10.5
2019-03-25T07:47:03.750Z,11.31
2019-03-25T07:48:04.393Z,11.32
2019-03-25T07:49:03.570Z,9.66
2019-03-25T07:50:03.602Z,9.51
2019-03-25T07:51:02.884Z,10.27
2019-03-25T07:52:03.635Z,9.59
2019-03-25T07:53:03.545Z,10.96
2019-03-25T07:54:03.598Z,9.95
2019-03-25T07:55:03.047Z,9.86
2019-03-25T07:56:03.637Z,9.32
2019-03-25T07:57:03.545Z,10.78
2019-03-25T07:58:02.930Z,9.21
2019-03-25T07:59:03.539Z,10
2019-03-25T08:00:14.053Z,9.4
2019-03-25T08:01:03.724Z,9.64
2019-03-25T08:02:03.711Z,8.94
2019-03-25T08:03:02.717Z,8.42
2019-03-25T08:04:02.942Z,8.75
2019-03-25T08:05:03.677Z,10.18
2019-03-25T08:06:02.861Z,9.24
2019-03-25T08:07:02.874Z,9.47
2019-03-25T08:08:02.876Z,10.23
2019-03-25T08:09:04.316Z,9.74
2019-03-25T08:10:03.646Z,8.85
2019-03-25T08:11:03.722Z,8.85
2019-03-25T08:12:03.438Z,9.12
2019-03-25T08:13:03.825Z,8.77
2019-03-25T08:14:03.691Z,8.77
2019-03-25T08:15:03.608Z,10.2
2019-03-25T08:16:03.652Z,10.45
2019-03-25T08:17:03.574Z,10.45
2019-03-25T08:18:03.628Z,9.03
2019-03-25T08:19:03.647Z,9.45
2019-03-25T08:20:03.472Z,10.32
2019-03-25T08:21:03.551Z,9.71
2019-03-25T08:22:02.899Z,8.75
2019-03-25T08:23:03.682Z,9.32
2019-03-25T08:24:03.421Z,9.85
2019-03-25T08:25:03.415Z,10.49
2019-03-25T08:26:03.225Z,10.14
2019-03-25T08:27:03.465Z,9.15
2019-03-25T08:28:03.459Z,10.02
2019-03-25T08:29:03.794Z,9.29
2019-03-25T08:30:03.458Z,10.62
2019-03-25T08:31:03.550Z,9.12
2019-03-25T08:32:03.597Z,10.88
2019-03-25T08:33:03.391Z,9.06
2019-03-25T08:34:03.831Z,10.08
2019-03-25T08:35:03.679Z,8.49
2019-03-25T08:36:02.824Z,9.89
2019-03-25T08:37:04.619Z,9.63
2019-03-25T08:38:03.557Z,9.08
2019-03-25T08:39:03.482Z,8.58
2019-03-25T08:40:02.297Z,9.45
2019-03-25T08:41:03.455Z,9.1
2019-03-25T08:42:03.458Z,9.59
2019-03-25T08:43:03.314Z,9.26
2019-03-25T08:44:03.474Z,9.51
2019-03-25T08:45:03.923Z,9.22
2019-03-25T08:46:03.410Z,8.88
2019-03-25T08:47:03.348Z,8.41
2019-03-25T08:48:03.768Z,9.87
2019-03-25T08:49:03.629Z,10.02
2019-03-25T08:50:03.627Z,9.39
2019-03-25T08:51:03.495Z,7.78
2019-03-25T08:52:03.475Z,8.08
2019-03-25T08:53:02.698Z,7.42
2019-03-25T08:54:03.380Z,8.19
2019-03-25T08:55:03.461Z,7.98
2019-03-25T08:56:03.550Z,8.1
2019-03-25T08:57:03.060Z,8.25
2019-03-25T08:58:12.558Z,8.29
2019-03-25T08:59:03.651Z,8.55
2019-03-25T09:00:03.616Z,8.55
2019-03-25T09:01:03.378Z,7.64
2019-03-25T09:02:03.544Z,7.64
2019-03-25T09:03:03.468Z,8.02
2019-03-25T09:04:03.650Z,8.09
2019-03-25T09:05:03.721Z,8.09
2019-03-25T09:06:03.473Z,7.62
2019-03-25T09:07:03.520Z,7.64
2019-03-25T09:08:03.053Z,7.77
2019-03-25T09:09:03.239Z,8.79
2019-03-25T09:10:03.158Z,7.61
2019-03-25T09:11:03.321Z,7.81
2019-03-25T09:12:03.171Z,6.96
2019-03-25T09:13:03.210Z,7.75
2019-03-25T09:14:03.274Z,7.09
2019-03-25T09:15:03.296Z,6.71
2019-03-25T09:16:03.321Z,8.05
2019-03-25T09:17:03.503Z,8.11
2019-03-25T09:18:03.026Z,7.8
2019-03-25T09:19:03.428Z,7.45
2019-03-25T09:20:03.702Z,7.64
2019-03-25T09:21:03.382Z,7
2019-03-25T09:22:03.385Z,7.25
2019-03-25T09:23:03.302Z,6.34
2019-03-25T09:24:03.170Z,6.68
2019-03-25T09:25:03.443Z,7.82
2019-03-25T09:26:03.895Z,7.39
2019-03-25T09:27:03.317Z,6.66
2019-03-25T09:28:03.414Z,6.66
2019-03-25T09:29:03.438Z,6.54
2019-03-25T09:30:03.879Z,6.16
2019-03-25T09:31:03.635Z,6.52
2019-03-25T09:32:03.611Z,7.01
2019-03-25T09:33:03.578Z,6.87
2019-03-25T09:34:03.449Z,6.36
2019-03-25T09:35:03.475Z,6.64
2019-03-25T09:36:03.654Z,5.48
2019-03-25T09:37:03.523Z,7.19
2019-03-25T09:38:03.288Z,5.98
2019-03-25T09:39:03.390Z,6.21
2019-03-25T09:40:03.570Z,6.71
2019-03-25T09:41:03.475Z,6.47
2019-03-25T09:42:03.358Z,6.8
2019-03-25T09:43:03.533Z,6.45
2019-03-25T09:44:03.476Z,7.75
2019-03-25T09:45:03.489Z,6.7
2019-03-25T09:46:03.404Z,6.81
2019-03-25T09:47:03.621Z,6.22
2019-03-25T09:48:03.246Z,6.84
2019-03-25T09:49:03.185Z,7.1
2019-03-25T09:50:03.563Z,6.25
2019-03-25T09:51:03.675Z,6.25
2019-03-25T09:52:03.394Z,6.32
2019-03-25T09:53:03.322Z,6.59
2019-03-25T09:54:03.675Z,6.59
2019-03-25T09:55:03.933Z,6.67
2019-03-25T09:56:03.749Z,6.47
2019-03-25T09:57:03.371Z,6.88
2019-03-25T09:58:03.703Z,6.94
2019-03-25T09:59:03.497Z,6.89
2019-03-25T10:00:03.883Z,6.82
2019-03-25T10:01:03.461Z,7.07
2019-03-25T10:02:03.549Z,6.38
2019-03-25T10:03:03.513Z,5.98
2019-03-25T10:04:03.597Z,6.26
2019-03-25T10:05:03.607Z,6.22
2019-03-25T10:06:03.650Z,6.48
2019-03-25T10:07:03.492Z,6.45
2019-03-25T10:08:03.411Z,6.42
2019-03-25T10:09:03.692Z,5.72
2019-03-25T10:10:03.609Z,5.45
2019-03-25T10:11:03.420Z,5.19
2019-03-25T10:12:03.441Z,5.45
2019-03-25T10:13:03.359Z,6.68
2019-03-25T10:14:03.823Z,5.4
2019-03-25T10:15:03.920Z,5.95
2019-03-25T10:16:03.566Z,5.99
2019-03-25T10:17:03.410Z,5.95
2019-03-25T10:18:03.459Z,5.68
2019-03-25T10:19:03.380Z,5.76
2019-03-25T10:20:03.052Z,5.18
2019-03-25T10:21:03.195Z,5.86
2019-03-25T10:22:03.347Z,6.14
2019-03-25T10:23:03.127Z,5.42
2019-03-25T10:24:03.310Z,5.22
2019-03-25T10:25:03.185Z,5.01
2019-03-25T10:26:03.497Z,4.91
2019-03-25T10:27:03.186Z,4.77
2019-03-25T10:28:03.222Z,5.71
2019-03-25T10:29:03.424Z,5.48
2019-03-25T10:30:03.009Z,4.81
2019-03-25T10:31:03.557Z,5.47
2019-03-25T10:32:03.302Z,5.55
2019-03-25T10:33:03.126Z,5.65
2019-03-25T10:34:03.065Z,5.56
2019-03-25T10:35:03.221Z,5.49
2019-03-25T10:36:02.996Z,6.34
2019-03-25T10:37:03.045Z,5.56
2019-03-25T10:38:02.961Z,4.92
2019-03-25T10:39:03.324Z,4.92
2019-03-25T10:40:02.907Z,5.33
2019-03-25T10:41:02.988Z,5.01
2019-03-25T10:42:03.156Z,5.01
2019-03-25T10:43:02.690Z,5.34
2019-03-25T10:44:03.844Z,5.48
2019-03-25T10:45:02.990Z,5.48
2019-03-25T10:46:02.835Z,5.39
2019-03-25T10:47:03.771Z,5.36
2019-03-25T10:48:03.363Z,4.91
2019-03-25T10:49:03.503Z,5.34
2019-03-25T10:50:03.046Z,4.28
2019-03-25T10:51:03.664Z,4.79
2019-03-25T10:52:03.661Z,5.31
2019-03-25T10:53:04.011Z,4.48
2019-03-25T10:54:03.555Z,4.89
2019-03-25T10:55:03.598Z,4.29
2019-03-25T10:56:03.801Z,5.21
2019-03-25T10:57:02.731Z,4.64
2019-03-25T10:58:03.748Z,4.54
2019-03-25T10:59:02.842Z,3.96
2019-03-25T11:00:03.760Z,4.2
2019-03-25T11:01:03.535Z,4.76
2019-03-25T11:02:03.651Z,5.58
2019-03-25T11:03:03.722Z,4.69
2019-03-25T11:04:03.451Z,4.43
2019-03-25T11:05:03.425Z,5.04
2019-03-25T11:06:02.908Z,4.39
2019-03-25T11:07:03.694Z,4.25
2019-03-25T11:08:03.329Z,4.92
2019-03-25T11:09:03.802Z,4.38
2019-03-25T11:10:03.578Z,4.79
2019-03-25T11:11:03.683Z,4.38
2019-03-25T11:12:03.383Z,4.53
2019-03-25T11:13:03.170Z,4.86
2019-03-25T11:14:03.368Z,4.19
2019-03-25T11:15:02.934Z,4.28
2019-03-25T11:16:03.337Z,4.16
2019-03-25T11:17:03.283Z,4.11
2019-03-25T11:18:03.296Z,4.42
2019-03-25T11:19:03.021Z,4.67
2019-03-25T11:20:03.091Z,4.69
2019-03-25T11:21:03.436Z,4.82
2019-03-25T11:22:03.396Z,3.94
2019-03-25T11:23:03.280Z,3.89
2019-03-25T11:24:03.271Z,4.64
2019-03-25T11:25:03.202Z,4.35
2019-03-25T11:26:03.267Z,4.65
2019-03-25T11:27:03.075Z,4.5
2019-03-25T11:28:03.296Z,4.5
2019-03-25T11:29:08.923Z,4.28
2019-03-25T11:30:05.789Z,4.28
2019-03-25T11:31:03.177Z,4.61
2019-03-25T11:32:03.741Z,3.81
2019-03-25T11:33:02.948Z,3.92
2019-03-25T11:34:03.833Z,4.7
2019-03-25T11:35:03.131Z,3.87
2019-03-25T11:36:03.018Z,4.76
2019-03-25T11:37:02.848Z,4.39
2019-03-25T11:38:02.798Z,4.58
2019-03-25T11:39:02.892Z,4.22
2019-03-25T11:40:03.125Z,4.85
2019-03-25T11:41:02.884Z,4.49
2019-03-25T11:42:02.802Z,4.48
2019-03-25T11:43:03.625Z,4.42
2019-03-25T11:44:03.103Z,4.16
2019-03-25T11:45:02.783Z,4.76
2019-03-25T11:46:03.588Z,4.96
2019-03-25T11:47:03.453Z,4.51
2019-03-25T11:48:03.034Z,4.05
2019-03-25T11:49:03.625Z,4.16
2019-03-25T11:50:03.798Z,4.6
2019-03-25T11:51:02.763Z,4.33
2019-03-25T11:52:03.059Z,4.88
2019-03-25T11:53:02.604Z,3.85
2019-03-25T11:54:03.725Z,4.65
2019-03-25T11:55:02.947Z,4.56
2019-03-25T11:56:03.603Z,3.84
2019-03-25T11:57:02.938Z,3.97
2019-03-25T11:58:03.839Z,4.21
2019-03-25T11:59:03.791Z,4.52
2019-03-25T12:00:03.788Z,4.49
2019-03-25T12:01:03.037Z,2.83
2019-03-25T12:02:03.612Z,3.02
2019-03-25T12:03:03.637Z,3.66
2019-03-25T12:04:03.516Z,3.03
2019-03-25T12:05:03.544Z,3.38
2019-03-25T12:06:03.817Z,3.65
2019-03-25T12:07:03.349Z,3.78
2019-03-25T12:08:03.657Z,3.28
2019-03-25T12:09:03.252Z,3.29
2019-03-25T12:10:03.414Z,3.81
2019-03-25T12:11:03.374Z,3.2
2019-03-25T12:12:03.972Z,3.71
2019-03-25T12:13:03.328Z,3.81
2019-03-25T12:14:03.364Z,4.17
2019-03-25T12:15:03.430Z,3.56
2019-03-25T12:16:03.489Z,3.56
2019-03-25T12:17:03.015Z,3.48
2019-03-25T12:18:02.818Z,4.06
2019-03-25T12:19:03.088Z,4.06
2019-03-25T12:20:03.057Z,4.24
2019-03-25T12:21:03.160Z,4.24
2019-03-25T12:22:02.884Z,3.66
2019-03-25T12:23:03.194Z,4.33
2019-03-25T12:24:02.874Z,3.48
2019-03-25T12:25:03.257Z,3.52
2019-03-25T12:26:02.924Z,3.51
2019-03-25T12:27:03.390Z,3.53
2019-03-25T12:28:02.813Z,3.86
2019-03-25T12:29:03.322Z,3.65
2019-03-25T12:30:03.013Z,3.78
2019-03-25T12:31:03.663Z,4.27
2019-03-25T12:32:02.815Z,5.04
2019-03-25T12:33:04.542Z,3.73
2019-03-25T12:34:02.995Z,4.68
2019-03-25T12:35:03.077Z,4.19
2019-03-25T12:36:02.950Z,4.22
2019-03-25T12:37:02.850Z,4.25
2019-03-25T12:38:03.037Z,4.31
2019-03-25T12:39:02.766Z,4.29
2019-03-25T12:40:03.311Z,5.89
2019-03-25T12:41:02.987Z,4.55
2019-03-25T12:42:03.105Z,5.03
2019-03-25T12:43:03.198Z,5.12
2019-03-25T12:44:03.257Z,4.86
2019-03-25T12:45:03.337Z,4.21
2019-03-25T12:46:03.011Z,4.4
2019-03-25T12:47:03.293Z,3.71
2019-03-25T12:48:03.114Z,4.5
2019-03-25T12:49:03.169Z,4.49
2019-03-25T12:50:03.219Z,4.19
2019-03-25T12:51:02.908Z,4.44
2019-03-25T12:52:02.974Z,3.82
2019-03-25T12:53:12.853Z,4.58
2019-03-25T12:54:03.022Z,4.19
2019-03-25T12:55:03.307Z,4.1
2019-03-25T12:56:03.110Z,4.59
2019-03-25T12:57:03.256Z,4.05
2019-03-25T12:58:03.043Z,3.83
2019-03-25T12:59:03.614Z,3.51
2019-03-25T13:00:02.953Z,3.92
2019-03-25T13:01:03.036Z,4.38
2019-03-25T13:02:03.542Z,3.75
2019-03-25T13:03:03.641Z,4.39
2019-03-25T13:04:03.889Z,4.38